Time;durP1;ratioP1;P1;durP2;ratioP2;P2;SDS_P1;SDS_P2;PMS_P1;PMS_P2;Temp;Humidity;BMP_temperature;BMP_pressure;BME280_temperature;BME280_humidity;BME280_pressure;Samples;Min_cycle;Max_cycle;Signal;HPM_P1;HPM_P2
2024/01/03 00:01:31;;;;;;;1.20;1.10;;;10.40;98.00;;;;;;5053571;28;20488;-66
2024/01/03 00:03:58;;;;;;;1.30;1.13;;;10.40;98.00;;;;;;5053301;28;20527;-67
2024/01/03 00:06:30;;;;;;;1.30;1.10;;;10.40;98.00;;;;;;5053739;28;20830;-66
2024/01/03 00:08:58;;;;;;;1.40;1.30;;;10.40;98.00;;;;;;5053608;28;20449;-66
2024/01/03 00:11:30;;;;;;;1.30;1.10;;;10.40;98.00;;;;;;5035628;28;20502;-66
2024/01/03 00:14:08;;;;;;;1.30;1.20;;;10.40;98.00;;;;;;5036027;28;20548;-66
2024/01/03 00:16:39;;;;;;;1.30;1.13;;;10.50;98.00;;;;;;5053062;28;20508;-66
2024/01/03 00:19:21;;;;;;;1.40;1.10;;;10.50;98.00;;;;;;5053349;28;20452;-66
2024/01/03 00:21:48;;;;;;;1.60;1.10;;;10.60;98.00;;;;;;5052942;28;20498;-65
2024/01/03 00:24:19;;;;;;;1.30;1.20;;;10.60;98.00;;;;;;5053337;28;20819;-66
2024/01/03 00:26:47;;;;;;;3.93;1.10;;;10.60;98.00;;;;;;5035917;28;20515;-66
2024/01/03 00:29:51;;;;;;;1.20;1.10;;;10.60;98.00;;;;;;5035391;28;20518;-65
2024/01/03 00:32:19;;;;;;;1.30;1.20;;;10.60;98.00;;;;;;5053027;28;20458;-67
2024/01/03 00:34:48;;;;;;;1.30;1.30;;;10.60;98.00;;;;;;5053135;28;20454;-66
2024/01/03 00:37:31;;;;;;;3.20;1.20;;;10.60;98.00;;;;;;5052121;28;20485;-66
2024/01/03 00:40:00;;;;;;;1.57;1.30;;;10.50;98.00;;;;;;5052893;28;20938;-67
2024/01/03 00:42:27;;;;;;;1.50;1.30;;;10.50;98.00;;;;;;5053111;28;20461;-66
2024/01/03 00:44:54;;;;;;;1.20;1.10;;;10.50;98.00;;;;;;5052653;28;20463;-65
2024/01/03 00:47:22;;;;;;;1.40;1.20;;;10.40;98.00;;;;;;5053007;28;20486;-65
2024/01/03 00:49:50;;;;;;;1.40;1.20;;;10.40;98.00;;;;;;5035098;28;20451;-65
2024/01/03 00:52:18;;;;;;;1.20;1.10;;;10.40;98.00;;;;;;5052863;28;20457;-66
2024/01/03 00:54:47;;;;;;;2.30;1.17;;;10.40;98.00;;;;;;5052601;28;20795;-66
2024/01/03 00:57:16;;;;;;;1.60;1.20;;;10.40;98.00;;;;;;5052439;28;20488;-66
2024/01/03 00:59:45;;;;;;;1.83;1.30;;;10.50;98.00;;;;;;5052541;28;20456;-65
2024/01/03 01:02:12;;;;;;;1.20;1.10;;;10.50;98.00;;;;;;5052616;28;20943;-66
2024/01/03 01:04:41;;;;;;;1.80;1.20;;;10.50;98.00;;;;;;5052080;28;20470;-66
2024/01/03 01:07:08;;;;;;;2.90;1.50;;;10.40;98.00;;;;;;5052303;28;20461;-66
2024/01/03 01:09:36;;;;;;;2.27;1.40;;;10.50;98.00;;;;;;5052492;28;20446;-66
2024/01/03 01:12:03;;;;;;;2.30;1.40;;;10.50;98.00;;;;;;5052134;28;20458;-66
2024/01/03 01:14:33;;;;;;;2.37;1.20;;;10.60;98.00;;;;;;5052283;28;20858;-66
2024/01/03 01:17:00;;;;;;;1.30;1.20;;;10.60;98.00;;;;;;5052117;28;20494;-66
2024/01/03 01:19:27;;;;;;;1.57;1.10;;;10.60;98.00;;;;;;5052309;28;20988;-66
2024/01/03 01:21:57;;;;;;;1.30;1.27;;;10.70;98.00;;;;;;5052121;28;20548;-65
2024/01/03 01:24:24;;;;;;;2.90;1.40;;;10.70;98.00;;;;;;5052105;28;20484;-66
2024/01/03 01:26:51;;;;;;;1.40;1.20;;;10.70;98.00;;;;;;5051954;28;20456;-66
2024/01/03 01:29:19;;;;;;;5.40;1.97;;;10.70;98.00;;;;;;5051229;28;21016;-66
2024/01/03 01:31:48;;;;;;;1.87;1.20;;;10.60;98.00;;;;;;5051891;28;20850;-66
2024/01/03 01:34:15;;;;;;;1.97;1.30;;;10.60;98.00;;;;;;5051821;28;20879;-66
2024/01/03 01:36:52;;;;;;;1.50;1.30;;;10.50;98.00;;;;;;5051734;28;20445;-66
2024/01/03 01:39:20;;;;;;;3.17;1.60;;;10.40;98.00;;;;;;5051898;28;20571;-66
2024/01/03 01:41:47;;;;;;;1.47;1.30;;;10.40;98.00;;;;;;5051720;28;20467;-66
2024/01/03 01:44:14;;;;;;;1.30;1.20;;;10.30;98.00;;;;;;5051890;28;20961;-67
2024/01/03 01:46:43;;;;;;;1.27;1.17;;;10.40;98.00;;;;;;5051574;28;20977;-66
2024/01/03 01:49:12;;;;;;;2.07;1.30;;;10.40;98.00;;;;;;5051465;28;20463;-67
2024/01/03 01:51:40;;;;;;;5.97;1.50;;;10.30;98.00;;;;;;5033673;28;20819;-66
2024/01/03 01:54:07;;;;;;;2.37;1.50;;;10.30;98.00;;;;;;5051426;28;20466;-66
2024/01/03 01:56:36;;;;;;;1.77;1.43;;;10.30;98.00;;;;;;5051528;28;20457;-66
2024/01/03 01:59:05;;;;;;;1.43;1.27;;;10.30;98.00;;;;;;5051382;28;21124;-66
2024/01/03 02:01:34;;;;;;;1.90;1.30;;;10.30;98.00;;;;;;5051519;28;20820;-66
2024/01/03 02:04:04;;;;;;;3.87;1.20;;;10.40;98.00;;;;;;5051186;28;20457;-66
2024/01/03 02:06:33;;;;;;;1.30;1.20;;;10.40;98.00;;;;;;5051763;28;20469;-66
2024/01/03 02:09:01;;;;;;;1.40;1.20;;;10.40;98.00;;;;;;5051064;28;20458;-66
2024/01/03 02:11:28;;;;;;;3.47;1.53;;;10.40;98.00;;;;;;5051623;28;20463;-66
2024/01/03 02:13:55;;;;;;;3.60;1.53;;;10.40;98.00;;;;;;5033575;28;20453;-66
2024/01/03 02:16:22;;;;;;;1.23;1.20;;;10.40;98.00;;;;;;5051409;28;20446;-66
2024/01/03 02:18:49;;;;;;;3.10;1.23;;;10.40;98.00;;;;;;5051110;28;21074;-66
2024/01/03 02:21:18;;;;;;;1.30;1.20;;;10.30;98.00;;;;;;5051218;28;20452;-66
2024/01/03 02:23:45;;;;;;;1.83;1.20;;;10.40;98.00;;;;;;5050466;28;20888;-66
2024/01/03 02:26:12;;;;;;;2.10;1.37;;;10.40;98.00;;;;;;5051175;28;20859;-67
2024/01/03 02:28:41;;;;;;;1.40;1.20;;;10.40;98.00;;;;;;5051116;28;20457;-66
2024/01/03 02:31:08;;;;;;;1.50;1.33;;;10.30;98.00;;;;;;5050930;28;20450;-66
2024/01/03 02:33:35;;;;;;;1.57;1.10;;;10.20;98.00;;;;;;5051108;28;20500;-66
2024/01/03 02:36:02;;;;;;;2.50;1.47;;;10.10;98.00;;;;;;5050913;28;20456;-66
2024/01/03 02:38:31;;;;;;;1.40;1.23;;;10.10;98.00;;;;;;5050951;28;20477;-66
2024/01/03 02:40:58;;;;;;;1.53;1.20;;;10.10;98.00;;;;;;5055067;28;20525;-66
2024/01/03 02:43:25;;;;;;;1.20;1.10;;;10.10;98.00;;;;;;5054986;28;20460;-66
2024/01/03 02:45:52;;;;;;;1.90;1.20;;;10.10;98.00;;;;;;5054820;28;20454;-66
2024/01/03 02:48:19;;;;;;;1.40;1.20;;;10.00;98.00;;;;;;5054786;28;20458;-66
2024/01/03 02:50:48;;;;;;;1.53;1.20;;;10.00;98.00;;;;;;5037343;28;20453;-68
2024/01/03 02:53:15;;;;;;;1.30;1.07;;;10.00;98.00;;;;;;5054675;28;20626;-66
2024/01/03 02:55:43;;;;;;;1.97;1.10;;;10.00;98.00;;;;;;5054777;28;20459;-66
2024/01/03 02:58:10;;;;;;;1.30;1.10;;;10.00;98.00;;;;;;5054682;28;20848;-66
2024/01/03 03:00:41;;;;;;;1.60;1.10;;;10.00;98.00;;;;;;5054607;28;20456;-65
2024/01/03 03:03:07;;;;;;;1.20;1.10;;;10.00;98.00;;;;;;5037296;28;20507;-65
2024/01/03 03:05:36;;;;;;;1.93;1.20;;;10.00;98.00;;;;;;5054479;28;20461;-68
2024/01/03 03:08:04;;;;;;;1.27;1.10;;;10.00;98.00;;;;;;5036742;28;20977;-66
2024/01/03 03:10:31;;;;;;;1.20;1.10;;;10.00;98.00;;;;;;5036851;28;20552;-66
2024/01/03 03:13:00;;;;;;;1.30;1.20;;;10.00;98.00;;;;;;5054459;28;20894;-67
2024/01/03 03:15:27;;;;;;;1.40;1.20;;;10.00;98.00;;;;;;5054462;28;20460;-66
2024/01/03 03:17:54;;;;;;;1.40;1.20;;;9.90;98.00;;;;;;5054267;28;20481;-66
2024/01/03 03:20:21;;;;;;;1.20;1.00;;;9.90;98.00;;;;;;5054177;28;20492;-66
2024/01/03 03:22:57;;;;;;;1.20;1.10;;;9.90;98.00;;;;;;5054427;28;20958;-66
2024/01/03 03:25:24;;;;;;;1.83;1.10;;;9.90;98.00;;;;;;5054248;28;20518;-65
2024/01/03 03:27:52;;;;;;;1.20;1.20;;;9.80;98.00;;;;;;5054153;28;20501;-66
2024/01/03 03:30:20;;;;;;;1.33;1.27;;;9.70;98.00;;;;;;5053980;28;20457;-66
2024/01/03 03:32:48;;;;;;;1.50;1.20;;;9.70;98.00;;;;;;5054043;28;20516;-66
2024/01/03 03:35:15;;;;;;;2.13;1.10;;;9.70;98.00;;;;;;5054068;28;20446;-66
2024/01/03 03:37:42;;;;;;;2.77;1.40;;;9.70;98.00;;;;;;5053981;28;20462;-65
2024/01/03 03:40:11;;;;;;;1.40;1.20;;;9.80;98.00;;;;;;5053689;28;20461;-66
2024/01/03 03:42:38;;;;;;;3.43;1.60;;;9.80;98.00;;;;;;5053548;28;20457;-66
2024/01/03 03:45:06;;;;;;;5.80;1.33;;;9.80;98.00;;;;;;5036222;28;20446;-66
2024/01/03 03:47:34;;;;;;;2.07;1.40;;;9.80;98.00;;;;;;5036207;28;20447;-66
2024/01/03 03:50:01;;;;;;;1.40;1.30;;;9.80;98.00;;;;;;5053410;28;20458;-65
2024/01/03 03:52:28;;;;;;;1.50;1.30;;;9.80;98.00;;;;;;5053183;28;20448;-65
2024/01/03 03:54:55;;;;;;;3.60;1.30;;;9.80;98.00;;;;;;5053698;28;20456;-66
2024/01/03 03:57:22;;;;;;;1.60;1.23;;;9.80;98.00;;;;;;5053900;28;20456;-66
2024/01/03 03:59:49;;;;;;;1.30;1.23;;;9.80;98.00;;;;;;5019484;28;20512;-65
2024/01/03 04:02:16;;;;;;;1.30;1.20;;;9.80;98.00;;;;;;5053498;28;20451;-67
2024/01/03 04:04:45;;;;;;;1.50;1.23;;;9.80;98.00;;;;;;5053418;28;20458;-66
2024/01/03 04:07:12;;;;;;;2.70;1.53;;;9.90;98.00;;;;;;5053701;28;20496;-66
2024/01/03 04:09:39;;;;;;;1.83;1.30;;;9.90;98.00;;;;;;5053568;28;20481;-66
2024/01/03 04:12:07;;;;;;;1.30;1.20;;;9.80;98.00;;;;;;5053364;28;20815;-66
2024/01/03 04:14:34;;;;;;;1.40;1.30;;;9.80;98.00;;;;;;5053227;28;20817;-66
2024/01/03 04:17:02;;;;;;;1.40;1.23;;;9.80;98.00;;;;;;5052687;28;20516;-66
2024/01/03 04:19:30;;;;;;;2.50;1.37;;;9.80;98.00;;;;;;5053151;28;20482;-66
2024/01/03 04:21:59;;;;;;;3.00;1.70;;;9.80;98.00;;;;;;5053145;28;20539;-66
2024/01/03 04:24:26;;;;;;;2.63;1.67;;;9.80;98.00;;;;;;5052968;28;20469;-66
2024/01/03 04:26:55;;;;;;;1.40;1.33;;;9.80;98.00;;;;;;5052630;28;20505;-66
2024/01/03 04:29:22;;;;;;;1.93;1.40;;;9.80;98.00;;;;;;5053047;28;20825;-66
2024/01/03 04:31:49;;;;;;;1.30;1.30;;;9.80;98.00;;;;;;5035372;28;20452;-66
2024/01/03 04:34:16;;;;;;;2.23;1.30;;;9.80;98.00;;;;;;5052860;28;20456;-65
2024/01/03 04:36:43;;;;;;;3.73;1.40;;;9.80;98.00;;;;;;5052888;28;20457;-66
2024/01/03 04:39:12;;;;;;;2.00;1.30;;;9.70;98.00;;;;;;5035104;28;20484;-65
2024/01/03 04:41:39;;;;;;;3.73;1.53;;;9.80;98.00;;;;;;5053031;28;20535;-66
2024/01/03 04:44:06;;;;;;;2.00;1.50;;;9.70;98.00;;;;;;5052725;28;20807;-66
2024/01/03 04:46:33;;;;;;;3.63;1.40;;;9.70;98.00;;;;;;5052833;28;20502;-66
2024/01/03 04:49:00;;;;;;;2.20;1.60;;;9.80;98.00;;;;;;5034536;28;20445;-66
2024/01/03 04:51:27;;;;;;;2.00;1.40;;;9.80;98.00;;;;;;5052589;28;20536;-66
2024/01/03 04:53:54;;;;;;;3.17;1.50;;;9.80;98.00;;;;;;5052531;28;20459;-67
2024/01/03 04:56:24;;;;;;;3.63;1.40;;;9.80;98.00;;;;;;5052534;28;20967;-65
2024/01/03 04:58:52;;;;;;;2.30;1.53;;;9.80;98.00;;;;;;5051482;28;20487;-65
2024/01/03 05:01:19;;;;;;;1.43;1.20;;;9.80;98.00;;;;;;5051214;28;20464;-65
2024/01/03 05:03:46;;;;;;;2.77;1.37;;;9.80;98.00;;;;;;5034495;28;20451;-66
2024/01/03 05:06:13;;;;;;;1.80;1.33;;;9.80;98.00;;;;;;5051839;28;20453;-66
2024/01/03 05:08:40;;;;;;;2.03;1.43;;;9.80;98.00;;;;;;5052160;28;20455;-67
2024/01/03 05:11:09;;;;;;;1.80;1.37;;;9.80;98.00;;;;;;5034623;28;20451;-66
2024/01/03 05:13:39;;;;;;;2.13;1.37;;;9.80;98.00;;;;;;5052217;28;20442;-66
2024/01/03 05:16:07;;;;;;;1.60;1.30;;;9.80;98.00;;;;;;5051422;28;20843;-67
2024/01/03 05:18:35;;;;;;;1.30;1.20;;;9.80;98.00;;;;;;5052254;28;20483;-66
2024/01/03 05:21:02;;;;;;;1.73;1.33;;;9.80;98.00;;;;;;5052093;28;21099;-66
2024/01/03 05:23:29;;;;;;;1.57;1.30;;;9.70;98.00;;;;;;5034160;28;20453;-66
2024/01/03 05:25:56;;;;;;;1.60;1.30;;;9.70;98.00;;;;;;5051866;28;20480;-67
2024/01/03 05:28:23;;;;;;;1.80;1.50;;;9.80;98.00;;;;;;5050109;28;20460;-65
2024/01/03 05:30:52;;;;;;;5.70;1.50;;;9.80;98.00;;;;;;5051902;28;20511;-65
2024/01/03 05:33:19;;;;;;;2.30;1.40;;;9.70;98.00;;;;;;5051633;28;20558;-66
2024/01/03 05:35:46;;;;;;;1.70;1.43;;;9.70;98.00;;;;;;5051657;28;20477;-66
2024/01/03 05:38:14;;;;;;;1.30;1.20;;;9.70;98.00;;;;;;5034045;28;20445;-66
2024/01/03 05:40:41;;;;;;;2.53;1.40;;;9.60;98.00;;;;;;5051576;28;20461;-66
2024/01/03 05:43:08;;;;;;;2.80;1.50;;;9.70;98.00;;;;;;5051740;28;20448;-65
2024/01/03 05:45:35;;;;;;;1.67;1.40;;;9.70;98.00;;;;;;5051845;28;20481;-67
2024/01/03 05:48:04;;;;;;;2.30;1.30;;;9.70;98.00;;;;;;5051871;28;20848;-66
2024/01/03 05:50:31;;;;;;;2.37;1.30;;;9.60;98.00;;;;;;5050539;28;20849;-66
2024/01/03 05:52:59;;;;;;;2.03;1.40;;;9.60;98.00;;;;;;5056041;28;20502;-66
2024/01/03 05:55:26;;;;;;;3.33;1.57;;;9.60;98.00;;;;;;5071582;28;20485;-66
2024/01/03 05:57:53;;;;;;;1.80;1.30;;;9.70;98.00;;;;;;5070208;28;20456;-66
2024/01/03 06:00:21;;;;;;;1.40;1.30;;;9.70;98.00;;;;;;5071284;28;20480;-66
2024/01/03 06:02:48;;;;;;;1.93;1.43;;;9.70;98.00;;;;;;5071280;28;20440;-66
2024/01/03 06:05:18;;;;;;;2.57;1.40;;;9.70;98.00;;;;;;5070910;28;20952;-66
2024/01/03 06:07:45;;;;;;;1.37;1.20;;;9.70;98.00;;;;;;5071434;28;20528;-66
2024/01/03 06:10:12;;;;;;;1.70;1.40;;;9.80;98.00;;;;;;5053570;28;20964;-66
2024/01/03 06:12:40;;;;;;;1.50;1.23;;;9.80;98.00;;;;;;5071561;28;20458;-66
2024/01/03 06:15:08;;;;;;;4.20;1.50;;;9.90;98.00;;;;;;5070369;28;20495;-65
2024/01/03 06:17:35;;;;;;;2.13;1.30;;;9.90;98.00;;;;;;5070462;28;20602;-67
2024/01/03 06:20:03;;;;;;;2.30;1.33;;;9.90;98.00;;;;;;5071110;28;20502;-65
2024/01/03 06:22:32;;;;;;;2.20;1.60;;;10.00;98.00;;;;;;5070811;28;20453;-66
2024/01/03 06:24:59;;;;;;;3.30;1.70;;;10.00;98.00;;;;;;5071041;28;20460;-66
2024/01/03 06:27:26;;;;;;;2.33;1.20;;;9.90;98.00;;;;;;5071081;28;20453;-67
2024/01/03 06:29:53;;;;;;;2.90;1.60;;;10.00;98.00;;;;;;5070871;28;20456;-67
2024/01/03 06:32:20;;;;;;;2.13;1.50;;;10.10;98.00;;;;;;5071109;28;20951;-66
2024/01/03 06:34:47;;;;;;;5.20;1.50;;;10.00;98.00;;;;;;5071255;28;20458;-67
2024/01/03 06:37:17;;;;;;;2.63;1.40;;;10.00;98.00;;;;;;5071114;28;20451;-67
2024/01/03 06:39:45;;;;;;;6.60;1.87;;;10.00;98.00;;;;;;5070603;28;20885;-66
2024/01/03 06:42:13;;;;;;;1.50;1.20;;;9.90;98.00;;;;;;5070898;28;20844;-66
2024/01/03 06:44:40;;;;;;;2.33;1.63;;;9.90;98.00;;;;;;5052557;28;20542;-67
2024/01/03 06:47:07;;;;;;;2.17;1.50;;;9.90;98.00;;;;;;5053164;28;20512;-66
2024/01/03 06:49:34;;;;;;;2.67;1.50;;;9.90;98.00;;;;;;5070926;28;20460;-66
2024/01/03 06:52:01;;;;;;;1.30;1.23;;;9.80;98.00;;;;;;5070904;28;20449;-66
2024/01/03 06:54:28;;;;;;;5.40;1.57;;;9.90;98.00;;;;;;5070821;28;20463;-67
2024/01/03 06:56:58;;;;;;;1.40;1.33;;;9.90;98.00;;;;;;5070824;28;20475;-66
2024/01/03 06:59:25;;;;;;;1.87;1.40;;;9.90;98.00;;;;;;5070768;28;21071;-66
2024/01/03 07:01:52;;;;;;;2.43;1.50;;;9.90;98.00;;;;;;5052703;28;20987;-68
2024/01/03 07:04:21;;;;;;;1.40;1.20;;;10.00;98.00;;;;;;5052992;28;20456;-68
2024/01/03 07:06:48;;;;;;;1.40;1.27;;;9.90;98.00;;;;;;5070317;28;20446;-68
2024/01/03 07:09:15;;;;;;;1.80;1.50;;;9.80;98.00;;;;;;5070612;28;20455;-68
2024/01/03 07:11:42;;;;;;;2.70;1.40;;;9.80;98.00;;;;;;5070678;28;20946;-68
2024/01/03 07:14:12;;;;;;;1.40;1.30;;;9.90;98.00;;;;;;5070703;28;20452;-68
2024/01/03 07:16:39;;;;;;;2.57;1.47;;;9.90;98.00;;;;;;5070639;28;20535;-68
2024/01/03 07:19:06;;;;;;;1.47;1.20;;;10.00;98.00;;;;;;5070489;28;20521;-68
2024/01/03 07:21:33;;;;;;;4.03;1.77;;;10.00;98.00;;;;;;5070604;28;20448;-68
2024/01/03 07:24:01;;;;;;;1.90;1.67;;;10.00;98.00;;;;;;5070478;28;20559;-69
2024/01/03 07:26:28;;;;;;;1.70;1.20;;;10.10;98.00;;;;;;5072157;28;20457;-68
2024/01/03 07:28:55;;;;;;;2.20;1.40;;;10.10;98.00;;;;;;5073647;28;20459;-68
2024/01/03 07:31:23;;;;;;;2.27;1.50;;;10.20;98.00;;;;;;5074338;28;21132;-68
2024/01/03 07:33:50;;;;;;;3.93;1.70;;;10.20;98.00;;;;;;5074238;28;20445;-67
2024/01/03 07:36:17;;;;;;;2.47;1.60;;;10.20;98.00;;;;;;5074361;28;20462;-68
2024/01/03 07:38:44;;;;;;;1.60;1.20;;;10.20;98.00;;;;;;5073296;28;20485;-68
2024/01/03 07:41:12;;;;;;;6.40;1.60;;;10.20;98.00;;;;;;5073888;28;21070;-68
2024/01/03 07:43:40;;;;;;;1.73;1.23;;;10.20;98.00;;;;;;5073948;28;20448;-68
2024/01/03 07:46:07;;;;;;;2.37;1.33;;;10.20;98.00;;;;;;5073957;28;20453;-68
2024/01/03 07:48:35;;;;;;;2.80;1.50;;;10.30;98.00;;;;;;5056186;28;20461;-68
2024/01/03 07:51:02;;;;;;;1.30;1.20;;;10.30;98.00;;;;;;5073800;28;20453;-68
2024/01/03 07:53:29;;;;;;;4.10;1.50;;;10.40;98.00;;;;;;5073782;28;20458;-68
2024/01/03 07:55:57;;;;;;;1.50;1.40;;;10.30;98.00;;;;;;5073613;28;20448;-68
2024/01/03 07:58:24;;;;;;;2.13;1.50;;;10.40;98.00;;;;;;5055892;28;20451;-68
2024/01/03 08:00:51;;;;;;;2.50;1.60;;;10.40;98.00;;;;;;5073316;28;20490;-68
2024/01/03 08:03:18;;;;;;;2.40;1.43;;;10.40;98.00;;;;;;5073657;28;20839;-68
2024/01/03 08:05:48;;;;;;;1.97;1.40;;;10.40;98.00;;;;;;5073292;28;20475;-68
2024/01/03 08:08:15;;;;;;;1.67;1.47;;;10.40;98.00;;;;;;5073484;28;20465;-68
2024/01/03 08:10:42;;;;;;;2.97;1.40;;;10.40;98.00;;;;;;5073330;28;20950;-68
2024/01/03 08:13:09;;;;;;;2.23;1.30;;;10.40;98.00;;;;;;5073443;28;20958;-68
2024/01/03 08:15:36;;;;;;;1.43;1.20;;;10.40;98.00;;;;;;5073274;28;20462;-68
2024/01/03 08:18:03;;;;;;;1.90;1.30;;;10.50;98.00;;;;;;5073423;28;20458;-68
2024/01/03 08:20:30;;;;;;;3.80;1.60;;;10.50;98.00;;;;;;5055149;28;20539;-68
2024/01/03 08:22:59;;;;;;;2.60;1.30;;;10.50;98.00;;;;;;5073150;28;20473;-68
2024/01/03 08:25:26;;;;;;;2.00;1.40;;;10.60;98.00;;;;;;5073072;28;20667;-68
2024/01/03 08:27:55;;;;;;;2.13;1.30;;;10.60;98.00;;;;;;5072764;28;20460;-68
2024/01/03 08:30:22;;;;;;;2.03;1.50;;;10.60;98.00;;;;;;5073071;28;20448;-68
2024/01/03 08:32:49;;;;;;;2.30;1.30;;;10.70;98.00;;;;;;5072717;28;20547;-68
2024/01/03 08:35:16;;;;;;;1.40;1.30;;;10.70;98.00;;;;;;5072867;28;20959;-68
2024/01/03 08:37:43;;;;;;;2.93;1.67;;;10.80;98.00;;;;;;5051430;28;20457;-68
2024/01/03 08:40:13;;;;;;;1.50;1.40;;;10.90;98.00;;;;;;5052866;28;20482;-69
2024/01/03 08:42:40;;;;;;;1.73;1.33;;;10.90;98.00;;;;;;5034918;28;20940;-69
2024/01/03 08:45:07;;;;;;;3.03;1.40;;;10.90;98.00;;;;;;5035094;28;20533;-69
2024/01/03 08:47:34;;;;;;;1.70;1.27;;;10.90;98.00;;;;;;5052427;28;20446;-68
2024/01/03 08:50:02;;;;;;;1.60;1.30;;;10.90;98.00;;;;;;5052446;28;20758;-68
2024/01/03 08:52:29;;;;;;;3.47;1.40;;;10.90;98.00;;;;;;5052462;28;20450;-69
2024/01/03 08:54:56;;;;;;;1.50;1.30;;;10.90;98.00;;;;;;5052354;28;20469;-69
2024/01/03 08:57:27;;;;;;;1.87;1.33;;;10.90;98.00;;;;;;5052519;28;20507;-69
2024/01/03 08:59:54;;;;;;;2.10;1.43;;;10.90;98.00;;;;;;5052134;28;20999;-68
2024/01/03 09:02:21;;;;;;;2.13;1.40;;;11.00;98.00;;;;;;5052405;28;20453;-69
2024/01/03 09:04:48;;;;;;;1.90;1.53;;;10.90;98.00;;;;;;5052098;28;20476;-69
2024/01/03 09:07:15;;;;;;;3.97;1.77;;;11.00;98.00;;;;;;5052294;28;20450;-70
2024/01/03 09:09:42;;;;;;;4.77;1.70;;;10.90;98.00;;;;;;5052188;28;20483;-71
2024/01/03 09:12:10;;;;;;;1.60;1.33;;;10.90;98.00;;;;;;5052213;28;20455;-69
2024/01/03 09:14:42;;;;;;;1.83;1.37;;;10.90;98.00;;;;;;5051676;28;20459;-70
2024/01/03 09:17:09;;;;;;;3.27;1.43;;;10.90;98.00;;;;;;5052167;28;20454;-69
2024/01/03 09:19:37;;;;;;;2.27;1.57;;;10.90;98.00;;;;;;5052071;28;20863;-69
2024/01/03 09:22:04;;;;;;;1.40;1.23;;;10.90;98.00;;;;;;5052011;28;20948;-69
2024/01/03 09:24:31;;;;;;;1.90;1.43;;;10.90;98.00;;;;;;5051735;28;20460;-69
2024/01/03 09:26:59;;;;;;;2.80;1.30;;;10.90;98.00;;;;;;5052420;28;20446;-69
2024/01/03 09:29:26;;;;;;;1.30;1.20;;;10.90;98.00;;;;;;5051899;28;20441;-69
2024/01/03 09:31:54;;;;;;;1.97;1.20;;;10.90;98.00;;;;;;5051914;28;20446;-69
2024/01/03 09:34:23;;;;;;;1.70;1.20;;;10.90;98.00;;;;;;5051700;28;20968;-69
2024/01/03 09:36:50;;;;;;;1.60;1.30;;;11.00;98.00;;;;;;5051860;28;20471;-69
2024/01/03 09:39:17;;;;;;;1.50;1.17;;;11.00;98.00;;;;;;5052036;28;20454;-70
2024/01/03 09:41:44;;;;;;;1.70;1.30;;;11.00;98.00;;;;;;5051540;28;20482;-69
2024/01/03 09:44:12;;;;;;;1.40;1.20;;;11.10;98.00;;;;;;5051826;28;20445;-69
2024/01/03 09:46:39;;;;;;;1.93;1.60;;;11.10;98.00;;;;;;5051699;28;20484;-69
2024/01/03 09:49:09;;;;;;;1.87;1.27;;;11.20;98.00;;;;;;5050816;28;20513;-69
2024/01/03 09:51:36;;;;;;;3.17;1.17;;;11.10;98.00;;;;;;5051664;28;20824;-69
2024/01/03 09:54:07;;;;;;;6.57;1.50;;;11.10;98.00;;;;;;5051795;28;20442;-69
2024/01/03 09:56:37;;;;;;;2.53;1.37;;;11.20;98.00;;;;;;5051643;28;20530;-69
2024/01/03 09:59:04;;;;;;;3.13;1.50;;;11.10;98.00;;;;;;5051277;28;20484;-69
2024/01/03 10:01:33;;;;;;;2.33;1.47;;;11.20;98.00;;;;;;5051369;28;20568;-69
2024/01/03 10:04:00;;;;;;;3.07;1.50;;;11.20;98.00;;;;;;5033756;28;20458;-69
2024/01/03 10:06:28;;;;;;;2.53;1.23;;;11.20;98.00;;;;;;5051323;28;20454;-69
2024/01/03 10:09:00;;;;;;;2.00;1.17;;;11.30;98.00;;;;;;5051262;28;20440;-69
2024/01/03 10:11:28;;;;;;;1.67;1.20;;;11.30;98.00;;;;;;5033741;28;20464;-70
2024/01/03 10:13:56;;;;;;;3.77;1.80;;;11.30;98.00;;;;;;5051165;28;20448;-69
2024/01/03 10:16:25;;;;;;;2.30;1.30;;;11.30;98.00;;;;;;5051437;28;20786;-69
2024/01/03 10:19:12;;;;;;;2.63;1.50;;;11.40;98.00;;;;;;5033699;28;20485;-69
2024/01/03 10:21:47;;;;;;;5.00;1.30;;;11.50;98.00;;;;;;5033544;28;20496;-70
2024/01/03 10:24:15;;;;;;;2.73;1.60;;;11.50;98.00;;;;;;5051200;28;20457;-70
2024/01/03 10:26:42;;;;;;;1.90;1.43;;;11.50;98.00;;;;;;5051045;28;20449;-69
2024/01/03 10:29:10;;;;;;;1.50;1.30;;;11.50;98.00;;;;;;5050977;28;20460;-69
2024/01/03 10:31:37;;;;;;;3.33;1.20;;;11.40;98.00;;;;;;5051052;28;20461;-69
2024/01/03 10:34:05;;;;;;;1.90;1.20;;;11.30;98.00;;;;;;5050918;28;21104;-69
2024/01/03 10:36:34;;;;;;;1.70;1.23;;;11.30;98.00;;;;;;5050939;28;20460;-69
2024/01/03 10:39:04;;;;;;;3.63;1.67;;;11.20;98.00;;;;;;5050747;28;20493;-70
2024/01/03 10:41:34;;;;;;;2.50;1.27;;;11.10;98.00;;;;;;5051113;28;20516;-69
2024/01/03 10:44:02;;;;;;;1.57;1.30;;;11.20;98.00;;;;;;5033573;28;20469;-69
2024/01/03 10:46:29;;;;;;;1.40;1.40;;;11.20;98.00;;;;;;5051020;28;20842;-70
2024/01/03 10:48:56;;;;;;;2.47;1.47;;;11.20;98.00;;;;;;5050529;28;20454;-69
2024/01/03 10:51:24;;;;;;;5.87;1.60;;;11.20;98.00;;;;;;5050937;28;20507;-69
2024/01/03 10:53:58;;;;;;;1.57;1.43;;;11.30;98.00;;;;;;5050996;28;20450;-69
2024/01/03 10:56:27;;;;;;;1.40;1.30;;;11.20;98.00;;;;;;5034018;28;20544;-69
2024/01/03 10:58:56;;;;;;;1.60;1.30;;;11.20;98.00;;;;;;5050716;28;20445;-69
2024/01/03 11:01:28;;;;;;;2.63;1.60;;;11.20;98.00;;;;;;5053759;28;20486;-69
2024/01/03 11:04:08;;;;;;;1.83;1.30;;;11.30;98.00;;;;;;5054523;28;20461;-70
2024/01/03 11:06:42;;;;;;;1.30;1.20;;;11.30;98.00;;;;;;5054766;28;20464;-70
2024/01/03 11:09:11;;;;;;;2.27;1.30;;;11.30;98.00;;;;;;5054590;28;20456;-69
2024/01/03 11:11:40;;;;;;;1.60;1.30;;;11.30;98.00;;;;;;5054814;28;20450;-69
2024/01/03 11:14:23;;;;;;;3.30;1.53;;;11.40;98.00;;;;;;5054577;28;20452;-70
2024/01/03 11:16:50;;;;;;;3.87;1.33;;;11.40;98.00;;;;;;5054637;28;20451;-69
2024/01/03 11:19:29;;;;;;;3.17;1.40;;;11.30;98.00;;;;;;5054501;28;20834;-69
2024/01/03 11:21:58;;;;;;;4.93;1.50;;;11.40;98.00;;;;;;5054719;28;20484;-69
2024/01/03 11:24:56;;;;;;;2.20;1.50;;;11.50;98.00;;;;;;5036902;28;20465;-69
2024/01/03 11:27:29;;;;;;;2.40;1.43;;;11.60;98.00;;;;;;5054390;28;20459;-69
2024/01/03 11:29:56;;;;;;;1.50;1.30;;;11.50;98.00;;;;;;5054324;28;20462;-69
2024/01/03 11:32:35;;;;;;;1.57;1.30;;;11.60;98.00;;;;;;5054371;28;20460;-70
2024/01/03 11:35:04;;;;;;;4.30;1.60;;;11.60;98.00;;;;;;5054006;28;20813;-69
2024/01/03 11:37:39;;;;;;;1.70;1.30;;;11.60;98.00;;;;;;5054032;28;20452;-69
2024/01/03 11:40:08;;;;;;;2.80;1.23;;;11.60;98.00;;;;;;5053906;28;20457;-70
2024/01/03 11:42:39;;;;;;;1.90;1.23;;;11.70;98.00;;;;;;5053981;28;20462;-69
2024/01/03 11:45:08;;;;;;;1.60;1.27;;;11.70;98.00;;;;;;5054177;28;20511;-70
2024/01/03 11:47:36;;;;;;;2.13;1.20;;;11.80;98.00;;;;;;5053874;28;20455;-70
2024/01/03 11:50:05;;;;;;;2.37;1.33;;;11.90;98.00;;;;;;5053646;28;20469;-70
2024/01/03 11:52:36;;;;;;;1.77;1.20;;;12.00;98.00;;;;;;5053926;28;20453;-69
2024/01/03 11:55:11;;;;;;;2.07;1.30;;;12.00;98.00;;;;;;5053686;28;20462;-70
2024/01/03 11:57:44;;;;;;;2.30;1.30;;;12.10;98.00;;;;;;5053779;28;20459;-69
2024/01/03 12:00:13;;;;;;;2.80;1.30;;;12.20;98.00;;;;;;5053509;28;20475;-69
2024/01/03 12:02:50;;;;;;;1.40;1.20;;;12.20;98.00;;;;;;5053558;28;20460;-70
2024/01/03 12:05:18;;;;;;;2.03;1.20;;;12.20;98.00;;;;;;5053453;28;20933;-69
2024/01/03 12:07:45;;;;;;;1.90;1.10;;;12.10;98.00;;;;;;5053397;28;20503;-69
2024/01/03 12:10:14;;;;;;;2.03;1.33;;;12.00;98.00;;;;;;5053457;28;20459;-69
2024/01/03 12:12:43;;;;;;;1.67;1.40;;;11.90;98.00;;;;;;5052769;28;20852;-69
2024/01/03 12:15:21;;;;;;;1.60;1.30;;;11.90;98.00;;;;;;5053263;28;20450;-70
2024/01/03 12:17:48;;;;;;;1.87;1.30;;;11.90;98.00;;;;;;5053285;28;20511;-69
2024/01/03 12:20:19;;;;;;;8.00;1.50;;;11.80;98.00;;;;;;5053394;28;20448;-70
2024/01/03 12:22:46;;;;;;;3.10;1.37;;;11.80;98.00;;;;;;5036070;28;20451;-69
2024/01/03 12:25:18;;;;;;;3.53;1.23;;;11.80;98.00;;;;;;5053000;28;20455;-70
2024/01/03 12:27:46;;;;;;;2.40;1.30;;;11.90;98.00;;;;;;5053312;28;20498;-69
2024/01/03 12:30:16;;;;;;;2.10;1.20;;;11.90;98.00;;;;;;5052873;28;20618;-69
2024/01/03 12:32:51;;;;;;;1.20;1.10;;;12.00;98.00;;;;;;5053167;28;20486;-69
2024/01/03 12:35:18;;;;;;;3.07;1.47;;;12.00;98.00;;;;;;5035115;28;20465;-69
2024/01/03 12:37:47;;;;;;;1.30;1.20;;;11.90;98.00;;;;;;5052944;28;20460;-69
2024/01/03 12:40:16;;;;;;;1.30;1.10;;;11.90;98.00;;;;;;5052951;28;20828;-69
2024/01/03 12:42:43;;;;;;;1.77;1.33;;;11.90;98.00;;;;;;5052775;28;20487;-70
2024/01/03 12:45:12;;;;;;;1.50;1.20;;;11.90;98.00;;;;;;5053012;28;20459;-70
2024/01/03 12:47:40;;;;;;;1.60;1.13;;;11.90;98.00;;;;;;5052915;28;20456;-69
2024/01/03 12:50:08;;;;;;;1.23;1.07;;;11.90;98.00;;;;;;5052657;28;20453;-69
2024/01/03 12:52:36;;;;;;;3.57;1.20;;;11.90;98.00;;;;;;5052559;28;20456;-69
2024/01/03 12:55:07;;;;;;;2.13;1.10;;;11.90;98.00;;;;;;5052611;28;21080;-69
2024/01/03 12:57:34;;;;;;;1.30;1.17;;;11.80;98.00;;;;;;5053127;28;20943;-70